createdAt,value
2024-01-28T00:01:43.065Z,151.82
2024-01-28T00:04:10.814Z,141.30
2024-01-28T00:06:38.500Z,149.70
2024-01-28T00:09:07.347Z,167.35
2024-01-28T00:11:34.967Z,180.55
2024-01-28T00:14:02.414Z,141.77
2024-01-28T00:16:29.886Z,155.43
2024-01-28T00:18:59.352Z,168.05
2024-01-28T00:21:27.485Z,145.57
2024-01-28T00:23:55.301Z,133.93
2024-01-28T00:26:22.872Z,143.55
2024-01-28T00:28:50.429Z,158.25
2024-01-28T00:31:17.855Z,132.65
2024-01-28T00:33:45.437Z,140.05
2024-01-28T00:36:16.965Z,149.20
2024-01-28T00:38:44.554Z,93.00
2024-01-28T00:41:24.450Z,136.05
2024-01-28T00:43:53.789Z,149.30
2024-01-28T00:46:23.118Z,144.23
2024-01-28T00:48:50.899Z,131.55
2024-01-28T00:51:18.530Z,201.23
2024-01-28T00:53:46.040Z,133.90
2024-01-28T00:56:17.604Z,127.00
2024-01-28T00:58:46.040Z,124.20
2024-01-28T01:01:13.997Z,135.38
2024-01-28T01:03:41.805Z,130.90
2024-01-28T01:06:09.526Z,145.30
2024-01-28T01:08:37.025Z,137.75
2024-01-28T01:11:06.455Z,135.48
2024-01-28T01:13:34.768Z,136.05
2024-01-28T01:16:02.368Z,108.00
2024-01-28T01:18:30.059Z,135.48
2024-01-28T01:20:57.758Z,139.07
2024-01-28T01:23:26.045Z,166.88
2024-01-28T01:25:53.513Z,152.63
2024-01-28T01:28:21.152Z,120.05
2024-01-28T01:30:49.011Z,146.70
2024-01-28T01:33:16.722Z,140.32
2024-01-28T01:35:45.760Z,163.40
2024-01-28T01:38:13.300Z,142.25
2024-01-28T01:40:40.970Z,122.72
2024-01-28T01:43:11.630Z,164.13
2024-01-28T01:45:39.174Z,128.85
2024-01-28T01:48:11.351Z,124.78
2024-01-28T01:50:43.600Z,130.63
2024-01-28T01:53:12.050Z,120.72
2024-01-28T01:55:41.521Z,177.73
2024-01-28T01:58:10.486Z,154.07
2024-01-28T02:00:39.268Z,135.93
2024-01-28T02:03:07.117Z,153.32
2024-01-28T02:05:34.633Z,153.88
2024-01-28T02:08:02.235Z,137.73
2024-01-28T02:10:30.847Z,126.90
2024-01-28T02:12:58.432Z,123.80
2024-01-28T02:15:26.062Z,119.30
2024-01-28T02:17:53.750Z,134.90
2024-01-28T02:20:22.128Z,137.88
2024-01-28T02:22:49.751Z,123.55
2024-01-28T02:25:17.325Z,130.13
2024-01-28T02:27:47.831Z,152.65
2024-01-28T02:30:16.153Z,108.60
2024-01-28T02:32:53.743Z,122.25
2024-01-28T02:35:21.556Z,113.25
2024-01-28T02:37:49.290Z,114.45
2024-01-28T02:40:16.935Z,118.22
2024-01-28T02:42:44.777Z,119.38
2024-01-28T02:45:12.461Z,150.23
2024-01-28T02:47:40.015Z,129.38
2024-01-28T02:50:08.506Z,134.35
2024-01-28T02:52:35.970Z,133.27
2024-01-28T02:55:03.569Z,119.07
2024-01-28T02:57:31.089Z,129.25
2024-01-28T02:59:58.680Z,118.55
2024-01-28T03:02:26.218Z,146.23
2024-01-28T03:04:53.728Z,118.47
2024-01-28T03:07:21.349Z,126.18
2024-01-28T03:09:49.012Z,119.10
2024-01-28T03:12:16.543Z,126.03
2024-01-28T03:14:43.941Z,152.38
2024-01-28T03:17:11.469Z,171.52
2024-01-28T03:19:39.092Z,135.93
2024-01-28T03:22:06.612Z,122.32
2024-01-28T03:24:34.240Z,195.23
2024-01-28T03:27:01.760Z,200.18
2024-01-28T03:29:29.318Z,171.07
2024-01-28T03:31:56.937Z,165.15
2024-01-28T03:34:24.850Z,182.48
2024-01-28T03:36:52.379Z,144.13
2024-01-28T03:39:20.171Z,159.57
2024-01-28T03:41:47.684Z,164.90
2024-01-28T03:44:20.746Z,135.45
2024-01-28T03:46:48.231Z,134.23
2024-01-28T03:49:15.744Z,136.10
2024-01-28T03:51:43.334Z,114.40
2024-01-28T03:54:10.890Z,131.98
2024-01-28T03:56:38.715Z,138.75
2024-01-28T03:59:06.514Z,155.20
2024-01-28T04:01:35.367Z,158.48
2024-01-28T04:04:03.904Z,134.00
2024-01-28T04:06:31.536Z,121.25
2024-01-28T04:08:59.442Z,118.47
2024-01-28T04:11:27.676Z,115.05
2024-01-28T04:13:57.148Z,102.35
2024-01-28T04:16:25.125Z,93.25
2024-01-28T04:18:53.023Z,103.78
2024-01-28T04:21:20.664Z,136.82
2024-01-28T04:23:48.333Z,101.75
2024-01-28T04:26:15.808Z,119.90
2024-01-28T04:28:43.290Z,124.22
2024-01-28T04:31:10.775Z,127.03
2024-01-28T04:33:38.344Z,111.97
2024-01-28T04:36:06.899Z,99.95
2024-01-28T04:38:37.693Z,93.97
2024-01-28T04:41:05.362Z,103.22
2024-01-28T04:43:32.952Z,94.25
2024-01-28T04:46:00.436Z,113.28
2024-01-28T04:48:28.107Z,106.38
2024-01-28T04:50:55.668Z,87.18
2024-01-28T04:53:23.509Z,120.50
2024-01-28T04:55:50.964Z,104.18
2024-01-28T04:58:18.622Z,134.45
2024-01-28T05:00:46.210Z,150.68
2024-01-28T05:03:13.876Z,114.38
2024-01-28T05:05:41.560Z,134.57
2024-01-28T05:08:09.275Z,143.82
2024-01-28T05:10:36.753Z,117.18
2024-01-28T05:13:04.345Z,158.82
2024-01-28T05:15:32.337Z,107.63
2024-01-28T05:17:59.822Z,109.90
2024-01-28T05:20:27.641Z,127.20
2024-01-28T05:22:55.202Z,146.02
2024-01-28T05:25:22.662Z,156.20
2024-01-28T05:27:50.350Z,139.90
2024-01-28T05:30:18.254Z,143.50
2024-01-28T05:32:45.828Z,111.75
2024-01-28T05:35:13.326Z,117.53
2024-01-28T05:37:42.006Z,121.00
2024-01-28T05:40:10.310Z,149.65
2024-01-28T05:42:38.126Z,126.40
2024-01-28T05:45:06.754Z,151.98
2024-01-28T05:47:34.310Z,148.18
2024-01-28T05:50:03.477Z,177.13
2024-01-28T05:52:30.987Z,181.32
2024-01-28T05:54:58.478Z,139.30
2024-01-28T05:57:26.019Z,201.98
2024-01-28T05:59:54.771Z,186.32
2024-01-28T06:02:22.393Z,165.48
2024-01-28T06:04:49.996Z,175.38
2024-01-28T06:07:17.484Z,177.30
2024-01-28T06:09:45.398Z,161.73
2024-01-28T06:12:13.069Z,189.32
2024-01-28T06:14:40.615Z,186.63
2024-01-28T06:17:08.128Z,175.18
2024-01-28T06:19:35.596Z,187.25
2024-01-28T06:22:04.051Z,155.15
2024-01-28T06:24:31.997Z,173.90
2024-01-28T06:26:59.815Z,145.30
2024-01-28T06:29:27.284Z,155.20
2024-01-28T06:31:54.690Z,134.43
2024-01-28T06:34:22.252Z,161.60
2024-01-28T06:36:49.971Z,132.43
2024-01-28T06:39:17.474Z,158.23
2024-01-28T06:41:45.134Z,134.23
2024-01-28T06:44:12.696Z,136.73
2024-01-28T06:46:40.549Z,165.05
2024-01-28T06:49:08.126Z,135.98
2024-01-28T06:51:35.714Z,174.02
2024-01-28T06:54:03.276Z,144.20
2024-01-28T06:56:30.757Z,137.18
2024-01-28T06:58:58.310Z,122.28
2024-01-28T07:01:26.022Z,95.93
2024-01-28T07:03:53.637Z,147.05
2024-01-28T07:06:22.085Z,140.93
2024-01-28T07:08:49.536Z,132.63
2024-01-28T07:11:17.298Z,138.75
2024-01-28T07:13:44.863Z,157.85
2024-01-28T07:16:13.607Z,136.40
2024-01-28T07:18:41.285Z,138.48
2024-01-28T07:21:08.881Z,119.40
2024-01-28T07:23:36.366Z,124.55
2024-01-28T07:26:05.027Z,158.70
2024-01-28T07:28:34.604Z,158.40
2024-01-28T07:31:02.313Z,161.98
2024-01-28T07:33:30.017Z,113.18
2024-01-28T07:35:57.717Z,137.07
2024-01-28T07:38:25.472Z,172.70
2024-01-28T07:40:52.957Z,146.50
2024-01-28T07:43:20.947Z,164.98
2024-01-28T07:45:48.385Z,150.32
2024-01-28T07:48:16.748Z,126.32
2024-01-28T07:50:44.747Z,159.75
2024-01-28T07:53:14.023Z,147.27
2024-01-28T07:55:41.511Z,143.45
2024-01-28T07:58:08.930Z,167.90
2024-01-28T08:00:36.800Z,164.85
2024-01-28T08:03:04.323Z,174.75
2024-01-28T08:05:31.961Z,122.20
2024-01-28T08:07:59.460Z,170.98
2024-01-28T08:10:27.849Z,139.68
2024-01-28T08:12:55.578Z,103.00
2024-01-28T08:15:23.225Z,113.07
2024-01-28T08:17:52.097Z,100.70
2024-01-28T08:20:19.631Z,148.98
2024-01-28T08:22:47.082Z,126.00
2024-01-28T08:25:14.709Z,107.85
2024-01-28T08:27:42.275Z,141.23
2024-01-28T08:30:10.351Z,90.95
2024-01-28T08:32:38.075Z,99.15
2024-01-28T08:35:05.954Z,94.70
2024-01-28T08:37:33.532Z,116.75
2024-01-28T08:40:01.188Z,108.53
2024-01-28T08:42:30.257Z,99.53
2024-01-28T08:44:58.578Z,103.07
2024-01-28T08:47:26.073Z,116.65
2024-01-28T08:49:54.099Z,126.88
2024-01-28T08:52:24.277Z,124.63
2024-01-28T08:54:51.819Z,141.95
2024-01-28T08:57:20.330Z,158.13
2024-01-28T08:59:47.866Z,136.70
2024-01-28T09:02:16.138Z,103.03
2024-01-28T09:04:43.748Z,99.18
2024-01-28T09:07:11.328Z,100.05
2024-01-28T09:09:38.838Z,103.95
2024-01-28T09:12:07.891Z,86.20
2024-01-28T09:14:35.462Z,83.22
2024-01-28T09:17:03.475Z,108.15
2024-01-28T09:19:30.945Z,88.25
2024-01-28T09:21:58.503Z,79.10
2024-01-28T09:24:26.123Z,85.70
2024-01-28T09:26:53.538Z,93.75
2024-01-28T09:29:22.027Z,113.57
2024-01-28T09:31:49.641Z,97.72
2024-01-28T09:34:17.326Z,98.50
2024-01-28T09:36:45.166Z,89.85
2024-01-28T09:39:12.868Z,93.28
2024-01-28T09:42:08.371Z,75.43
2024-01-28T09:44:35.959Z,84.95
2024-01-28T09:47:03.907Z,78.70
2024-01-28T09:49:40.595Z,98.43
2024-01-28T09:52:12.729Z,72.13
2024-01-28T09:57:10.177Z,64.32
2024-01-28T09:59:38.139Z,63.90
2024-01-28T10:02:06.776Z,73.15
2024-01-28T10:04:36.051Z,65.63
2024-01-28T10:07:04.054Z,73.95
2024-01-28T10:09:32.274Z,68.43
2024-01-28T10:12:01.260Z,65.00
2024-01-28T10:14:29.092Z,70.50
2024-01-28T10:16:58.547Z,66.40
2024-01-28T10:19:26.490Z,78.78
2024-01-28T10:21:54.409Z,74.88
2024-01-28T10:24:22.017Z,69.38
2024-01-28T10:26:50.126Z,67.00
2024-01-28T10:29:18.797Z,70.22
2024-01-28T10:31:46.292Z,81.25
2024-01-28T10:34:13.903Z,80.78
2024-01-28T10:36:45.823Z,81.78
2024-01-28T10:39:16.279Z,76.50
2024-01-28T10:41:56.259Z,84.28
2024-01-28T10:44:24.498Z,75.47
2024-01-28T10:46:56.550Z,83.53
2024-01-28T10:51:58.658Z,78.20
2024-01-28T10:54:27.157Z,78.60
2024-01-28T10:56:55.518Z,77.35
2024-01-28T10:59:24.571Z,73.57
2024-01-28T11:01:52.983Z,82.95
2024-01-28T11:04:20.694Z,86.30
2024-01-28T11:06:48.354Z,76.35
2024-01-28T11:09:16.329Z,82.90
2024-01-28T11:11:44.069Z,86.85
2024-01-28T11:14:12.028Z,88.70
2024-01-28T11:16:41.588Z,86.88
2024-01-28T11:19:11.697Z,96.18
2024-01-28T11:21:41.470Z,91.60
2024-01-28T11:24:15.221Z,89.63
2024-01-28T11:26:47.627Z,91.35
2024-01-28T11:29:16.962Z,90.93
2024-01-28T11:31:45.739Z,84.53
2024-01-28T11:34:23.780Z,96.15
2024-01-28T11:36:53.685Z,93.40
2024-01-28T11:39:46.791Z,98.05
2024-01-28T11:42:15.006Z,93.78
2024-01-28T11:44:46.769Z,91.80
2024-01-28T11:47:18.163Z,94.28
2024-01-28T11:49:46.032Z,100.18
2024-01-28T11:52:13.974Z,99.07
2024-01-28T11:54:44.867Z,98.57
2024-01-28T11:57:12.831Z,98.75
2024-01-28T11:59:40.380Z,104.68
2024-01-28T12:02:09.340Z,96.53
2024-01-28T12:04:40.345Z,94.38
2024-01-28T12:07:07.955Z,92.97
2024-01-28T12:09:39.029Z,94.82
2024-01-28T12:12:08.316Z,91.50
2024-01-28T12:14:35.836Z,102.90
2024-01-28T12:17:04.027Z,95.55
2024-01-28T12:19:31.688Z,104.75
2024-01-28T12:21:59.806Z,98.90
2024-01-28T12:24:27.960Z,91.85
2024-01-28T12:26:56.872Z,103.22
2024-01-28T12:29:24.342Z,99.15
2024-01-28T12:31:51.839Z,99.70
2024-01-28T12:34:19.423Z,96.05
2024-01-28T12:36:47.042Z,95.82
2024-01-28T12:39:14.542Z,97.78
2024-01-28T12:41:42.126Z,100.57
2024-01-28T12:44:09.865Z,102.07
2024-01-28T12:46:37.294Z,95.18
2024-01-28T12:49:07.380Z,92.22
2024-01-28T12:51:37.999Z,93.65
2024-01-28T12:54:05.886Z,96.28
2024-01-28T12:56:33.357Z,93.18
2024-01-28T12:59:01.125Z,97.63
2024-01-28T13:01:28.736Z,88.30
2024-01-28T13:03:56.470Z,88.97
2024-01-28T13:06:27.175Z,88.22
2024-01-28T13:08:55.049Z,83.00
2024-01-28T13:11:22.536Z,90.05
2024-01-28T13:13:50.046Z,80.75
2024-01-28T13:16:17.671Z,80.95
2024-01-28T13:18:46.940Z,85.05
2024-01-28T13:21:14.627Z,84.80
2024-01-28T13:23:42.128Z,84.32
2024-01-28T13:26:09.728Z,90.78
2024-01-28T13:28:37.254Z,89.55
2024-01-28T13:31:05.444Z,88.05
2024-01-28T13:33:33.146Z,94.70
2024-01-28T13:36:01.071Z,89.45
2024-01-28T13:38:28.677Z,79.22
2024-01-28T13:40:56.125Z,88.13
2024-01-28T13:43:23.633Z,86.63
2024-01-28T13:45:51.274Z,94.35
2024-01-28T13:48:18.990Z,91.78
2024-01-28T13:50:46.690Z,89.88
2024-01-28T13:53:14.126Z,89.03
2024-01-28T13:55:41.580Z,99.57
2024-01-28T13:58:09.139Z,88.50
2024-01-28T14:00:36.686Z,87.15
2024-01-28T14:03:04.856Z,89.45
2024-01-28T14:05:32.346Z,86.03
2024-01-28T14:07:59.989Z,91.47
2024-01-28T14:10:27.509Z,88.22
2024-01-28T14:12:55.460Z,92.13
2024-01-28T14:15:23.697Z,93.47
2024-01-28T14:17:51.204Z,90.20
2024-01-28T14:20:18.874Z,91.45
2024-01-28T14:22:46.351Z,87.03
2024-01-28T14:25:15.377Z,94.45
2024-01-28T14:27:42.998Z,86.13
2024-01-28T14:30:10.853Z,85.68
2024-01-28T14:32:38.379Z,95.88
2024-01-28T14:35:06.375Z,91.47
2024-01-28T14:37:33.893Z,85.03
2024-01-28T14:40:01.861Z,94.20
2024-01-28T14:42:29.476Z,89.90
2024-01-28T14:44:58.691Z,97.47
2024-01-28T14:47:27.334Z,93.35
2024-01-28T14:49:54.950Z,93.30
2024-01-28T14:52:22.522Z,89.65
2024-01-28T14:54:50.087Z,101.03
2024-01-28T14:57:17.636Z,93.50
2024-01-28T14:59:45.220Z,90.97
2024-01-28T15:02:12.665Z,100.22
2024-01-28T15:04:40.272Z,93.28
2024-01-28T15:07:08.207Z,102.55
2024-01-28T15:09:35.721Z,97.32
2024-01-28T15:12:03.478Z,92.50
2024-01-28T15:14:31.001Z,94.60
2024-01-28T15:16:58.636Z,99.70
2024-01-28T15:19:26.253Z,93.85
2024-01-28T15:21:53.963Z,105.30
2024-01-28T15:24:21.781Z,98.30
2024-01-28T15:26:49.441Z,94.93
2024-01-28T15:29:20.831Z,100.57
2024-01-28T15:31:48.367Z,98.60
2024-01-28T15:34:15.999Z,93.28
2024-01-28T15:36:43.789Z,91.20
2024-01-28T15:39:12.736Z,90.20
2024-01-28T15:41:40.296Z,92.90
2024-01-28T15:44:08.200Z,95.13
2024-01-28T15:46:37.557Z,99.72
2024-01-28T15:49:05.743Z,92.53
2024-01-28T15:51:33.554Z,91.78
2024-01-28T15:54:01.064Z,92.20
2024-01-28T15:56:28.839Z,100.53
2024-01-28T15:58:56.995Z,94.93
2024-01-28T16:01:25.332Z,93.70
2024-01-28T16:03:53.802Z,104.05
2024-01-28T16:06:21.466Z,109.18
2024-01-28T16:08:49.079Z,99.03
2024-01-28T16:11:18.388Z,111.18
2024-01-28T16:13:48.080Z,108.05
2024-01-28T16:16:15.727Z,103.78
2024-01-28T16:18:43.463Z,105.00
2024-01-28T16:21:11.059Z,111.57
2024-01-28T16:23:38.544Z,91.55
2024-01-28T16:26:06.731Z,83.97
2024-01-28T16:28:34.288Z,83.03
2024-01-28T16:31:02.703Z,87.25
2024-01-28T16:33:30.367Z,81.75
2024-01-28T16:35:58.024Z,106.65
2024-01-28T16:38:25.601Z,111.65
2024-01-28T16:40:53.273Z,89.70
2024-01-28T16:43:20.797Z,83.63
2024-01-28T16:45:48.409Z,85.88
2024-01-28T16:48:16.249Z,90.82
2024-01-28T16:50:43.880Z,93.57
2024-01-28T16:53:11.482Z,80.68
2024-01-28T16:55:39.786Z,97.18
2024-01-28T16:58:08.778Z,113.85
2024-01-28T17:00:36.417Z,111.10
2024-01-28T17:03:04.693Z,91.15
2024-01-28T17:05:32.821Z,86.13
2024-01-28T17:08:00.770Z,90.55
2024-01-28T17:10:31.564Z,85.65
2024-01-28T17:13:01.509Z,91.67
2024-01-28T17:15:30.959Z,94.93
2024-01-28T17:17:58.776Z,98.03
2024-01-28T17:20:27.182Z,84.72
2024-01-28T17:22:54.746Z,107.45
2024-01-28T17:25:22.402Z,94.53
2024-01-28T17:27:50.236Z,97.25
2024-01-28T17:30:17.895Z,86.45
2024-01-28T17:32:45.554Z,93.38
2024-01-28T17:35:13.208Z,84.07
2024-01-28T17:37:42.711Z,96.28
2024-01-28T17:40:11.179Z,98.47
2024-01-28T17:42:38.793Z,88.72
2024-01-28T17:45:06.911Z,89.40
2024-01-28T17:47:37.597Z,93.55
2024-01-28T17:50:07.236Z,95.13
2024-01-28T17:52:36.215Z,90.63
2024-01-28T17:55:05.404Z,96.30
2024-01-28T17:57:35.596Z,104.93
2024-01-28T18:00:05.479Z,116.45
2024-01-28T18:02:39.139Z,123.00
2024-01-28T18:05:06.971Z,120.00
2024-01-28T18:07:35.439Z,101.18
2024-01-28T18:10:03.132Z,120.03
2024-01-28T18:12:30.590Z,115.00
2024-01-28T18:14:59.335Z,128.75
2024-01-28T18:17:28.793Z,120.88
2024-01-28T18:19:56.417Z,159.88
2024-01-28T18:22:23.969Z,148.13
2024-01-28T18:24:51.440Z,119.20
2024-01-28T18:27:19.555Z,121.45
2024-01-28T18:29:49.269Z,119.47
2024-01-28T18:32:16.993Z,115.35
2024-01-28T18:34:44.802Z,118.03
2024-01-28T18:37:13.056Z,113.45
2024-01-28T18:39:43.279Z,118.47
2024-01-28T18:42:10.872Z,108.05
2024-01-28T18:44:38.515Z,113.88
2024-01-28T18:47:07.243Z,97.57
2024-01-28T18:49:34.978Z,110.57
2024-01-28T18:52:02.750Z,84.47
2024-01-28T18:54:30.383Z,91.85
2024-01-28T18:56:57.895Z,97.10
2024-01-28T18:59:25.433Z,92.18
2024-01-28T19:01:53.040Z,85.20
2024-01-28T19:04:20.638Z,94.65
2024-01-28T19:06:48.196Z,91.32
2024-01-28T19:09:15.835Z,95.28
2024-01-28T19:11:43.413Z,91.40
2024-01-28T19:14:15.630Z,92.57
2024-01-28T19:16:43.704Z,76.18
2024-01-28T19:19:11.321Z,88.28
2024-01-28T19:21:39.098Z,93.60
2024-01-28T19:24:06.805Z,102.72
2024-01-28T19:26:34.281Z,100.15
2024-01-28T19:29:02.334Z,89.35
2024-01-28T19:31:30.360Z,90.70
2024-01-28T19:33:57.954Z,92.30
2024-01-28T19:36:30.637Z,100.60
2024-01-28T19:38:58.756Z,101.82
2024-01-28T19:41:26.292Z,104.35
2024-01-28T19:43:53.793Z,105.22
2024-01-28T19:46:21.333Z,113.25
2024-01-28T19:48:49.025Z,113.50
2024-01-28T19:51:17.491Z,120.70
2024-01-28T19:53:45.075Z,123.72
2024-01-28T19:56:12.559Z,122.80
2024-01-28T19:58:40.009Z,119.45
2024-01-28T20:01:07.656Z,110.45
2024-01-28T20:03:35.429Z,147.45
2024-01-28T20:06:03.861Z,179.45
2024-01-28T20:08:32.112Z,142.43
2024-01-28T20:10:59.582Z,102.15
2024-01-28T20:13:27.270Z,135.50
2024-01-28T20:15:54.817Z,166.52
2024-01-28T20:18:24.050Z,174.65
2024-01-28T20:20:54.446Z,157.02
2024-01-28T20:23:22.296Z,147.60
2024-01-28T20:25:53.998Z,110.57
2024-01-28T20:28:22.910Z,161.52
2024-01-28T20:30:50.425Z,154.07
2024-01-28T20:33:18.037Z,148.77
2024-01-28T20:35:45.641Z,125.90
2024-01-28T20:38:13.165Z,124.80
2024-01-28T20:40:40.776Z,109.72
2024-01-28T20:43:08.243Z,129.32
2024-01-28T20:45:35.804Z,119.70
2024-01-28T20:48:03.482Z,115.03
2024-01-28T20:50:31.029Z,85.22
2024-01-28T20:52:58.526Z,114.20
2024-01-28T20:55:26.041Z,127.45
2024-01-28T20:57:53.512Z,131.25
2024-01-28T21:00:21.160Z,105.90
2024-01-28T21:02:48.713Z,86.90
2024-01-28T21:05:16.247Z,94.07
2024-01-28T21:07:43.798Z,108.85
2024-01-28T21:10:11.452Z,140.63
2024-01-28T21:12:39.169Z,93.00
2024-01-28T21:15:07.132Z,110.72
2024-01-28T21:17:35.060Z,84.97
2024-01-28T21:20:04.310Z,100.25
2024-01-28T21:22:32.063Z,97.95
2024-01-28T21:24:59.945Z,111.47
2024-01-28T21:27:27.592Z,129.98
2024-01-28T21:29:55.031Z,99.47
2024-01-28T21:32:22.540Z,114.82
2024-01-28T21:34:50.058Z,102.82
2024-01-28T21:37:17.672Z,97.05
2024-01-28T21:39:45.126Z,102.57
2024-01-28T21:42:12.677Z,121.75
2024-01-28T21:44:40.173Z,98.15
2024-01-28T21:47:08.784Z,99.35
2024-01-28T21:49:42.023Z,124.43
2024-01-28T21:52:09.699Z,106.72
2024-01-28T21:54:37.694Z,122.85
2024-01-28T21:57:05.567Z,112.07
2024-01-28T21:59:33.042Z,114.35
2024-01-28T22:02:00.590Z,93.85
2024-01-28T22:04:28.198Z,117.68
2024-01-28T22:06:55.825Z,139.45
2024-01-28T22:09:24.771Z,124.88
2024-01-28T22:11:52.547Z,89.95
2024-01-28T22:14:20.005Z,116.40
2024-01-28T22:16:47.543Z,94.85
2024-01-28T22:19:15.185Z,96.82
2024-01-28T22:21:43.062Z,104.25
2024-01-28T22:24:11.333Z,133.57
2024-01-28T22:26:39.062Z,113.30
2024-01-28T22:29:06.678Z,109.75
2024-01-28T22:31:34.159Z,117.15
2024-01-28T22:34:01.885Z,108.38
2024-01-28T22:36:29.472Z,95.20
2024-01-28T22:38:57.048Z,94.80
2024-01-28T22:41:24.656Z,93.72
2024-01-28T22:43:52.221Z,70.88
2024-01-28T22:46:19.739Z,97.70
2024-01-28T22:48:47.444Z,102.25
2024-01-28T22:51:15.097Z,109.78
2024-01-28T22:53:42.680Z,95.38
2024-01-28T22:56:10.198Z,89.97
2024-01-28T22:58:37.890Z,113.38
2024-01-28T23:01:10.532Z,121.60
2024-01-28T23:03:38.166Z,99.00
2024-01-28T23:06:07.026Z,78.40
2024-01-28T23:08:36.356Z,109.65
2024-01-28T23:11:04.452Z,75.80
2024-01-28T23:13:31.971Z,107.20
2024-01-28T23:16:00.077Z,120.22
2024-01-28T23:18:31.365Z,90.82
2024-01-28T23:21:00.108Z,98.00
2024-01-28T23:23:27.604Z,90.10
2024-01-28T23:25:55.177Z,131.18
2024-01-28T23:28:22.658Z,94.80
2024-01-28T23:30:50.247Z,103.97
2024-01-28T23:33:17.850Z,122.95
2024-01-28T23:35:46.190Z,104.25
2024-01-28T23:38:14.008Z,87.35
2024-01-28T23:40:41.658Z,116.57
2024-01-28T23:43:09.211Z,125.00
2024-01-28T23:45:36.757Z,93.53
2024-01-28T23:48:04.566Z,128.13
2024-01-28T23:50:32.166Z,129.07
2024-01-28T23:52:59.624Z,85.38
2024-01-28T23:55:27.643Z,101.68
2024-01-28T23:57:55.139Z,97.18
